Time;durP1;ratioP1;P1;durP2;ratioP2;P2;SDS_P1;SDS_P2;PMS_P1;PMS_P2;Temp;Humidity;BMP_temperature;BMP_pressure;BME280_temperature;BME280_humidity;BME280_pressure;Samples;Min_cycle;Max_cycle;Signal;HPM_P1;HPM_P2
2022/12/04 00:01:10;;;;;;;21.48;14.30;;;;;;;;;;5127973;28;20027;-51
2022/12/04 00:03:46;;;;;;;12.77;9.70;;;;;;;;;;5128481;28;20031;-55
2022/12/04 00:09:31;;;;;;;16.53;12.90;;;;;;;;;;5128200;28;20095;-52
2022/12/04 00:12:34;;;;;;;19.67;14.33;;;;;;;;;;5128062;28;20039;-54
2022/12/04 00:21:09;;;;;;;25.20;11.50;;;;;;;;;;5128630;28;20034;-55
2022/12/04 00:33:06;;;;;;;18.93;14.13;;;;;;;;;;5084505;28;20065;-52
2022/12/04 00:39:07;;;;;;;14.97;12.27;;;;;;;;;;5128625;28;20027;-54
2022/12/04 00:42:04;;;;;;;;;;;;;;;;;;;;;
2022/12/04 00:44:44;;;;;;;;;;;;;;;;;;;;;
2022/12/04 00:47:19;;;;;;;13.83;12.07;;;;;;;;;;5124806;28;20062;-51
2022/12/04 00:53:29;;;;;;;14.67;11.37;;;;;;;;;;5095113;28;20092;-50
2022/12/04 00:56:11;;;;;;;15.93;11.40;;;;;;;;;;5123663;28;20053;-51
2022/12/04 01:02:00;;;;;;;21.40;11.70;;;;;;;;;;5065349;28;20493;-55
2022/12/04 01:07:48;;;;;;;12.83;10.93;;;;;;;;;;5070921;28;20088;-54
2022/12/04 01:10:35;;;;;;;12.30;10.20;;;;;;;;;;5086134;28;20040;-54
2022/12/04 01:13:27;;;;;;;18.50;11.97;;;;;;;;;;5069478;28;20137;-54
2022/12/04 01:16:04;;;;;;;13.23;9.33;;;;;;;;;;5072067;28;20055;-54
2022/12/04 01:22:18;;;;;;;14.13;9.50;;;;;;;;;;5089206;28;20067;-53
2022/12/04 01:24:53;;;;;;;14.32;12.05;;;;;;;;;;5055267;28;20044;-51
2022/12/04 01:30:53;;;;;;;14.40;10.77;;;;;;;;;;4989022;28;20035;-49
2022/12/04 01:33:45;;;;;;;13.47;10.57;;;;;;;;;;5088553;28;20044;-53
2022/12/04 01:36:47;;;;;;;16.27;11.17;;;;;;;;;;5129297;28;20044;-53
2022/12/04 01:39:28;;;;;;;11.87;10.50;;;;;;;;;;5130893;28;20032;-55
2022/12/04 01:45:34;;;;;;;13.60;11.27;;;;;;;;;;5090449;28;20053;-53
2022/12/04 01:48:24;;;;;;;13.47;10.13;;;;;;;;;;5113056;28;20057;-55
2022/12/04 01:51:16;;;;;;;10.43;8.63;;;;;;;;;;5100010;28;20385;-53
2022/12/04 01:57:37;;;;;;;15.23;11.40;;;;;;;;;;5090471;28;20126;-55
2022/12/04 02:03:05;;;;;;;12.37;11.07;;;;;;;;;;5130827;28;20080;-54
2022/12/04 02:05:36;;;;;;;18.63;11.10;;;;;;;;;;5130160;28;20396;-51
2022/12/04 02:11:30;;;;;;;;;;;;;;;;;;;;;
2022/12/04 02:14:33;;;;;;;15.17;11.23;;;;;;;;;;5130850;28;20066;-52
2022/12/04 02:17:30;;;;;;;14.83;11.27;;;;;;;;;;5131022;28;20593;-50
2022/12/04 02:20:17;;;;;;;15.80;10.37;;;;;;;;;;5130872;28;20027;-54
2022/12/04 02:23:07;;;;;;;15.20;9.73;;;;;;;;;;5130436;28;20044;-53
2022/12/04 02:25:55;;;;;;;12.48;10.43;;;;;;;;;;5129119;28;20045;-55
2022/12/04 02:28:56;;;;;;;10.80;9.70;;;;;;;;;;5130816;28;20103;-53
2022/12/04 02:32:00;;;;;;;13.97;11.23;;;;;;;;;;5112745;28;20032;-52
2022/12/04 02:34:37;;;;;;;12.70;9.53;;;;;;;;;;5090773;28;20074;-55
2022/12/04 02:37:31;;;;;;;17.57;11.83;;;;;;;;;;5130718;28;20020;-51
2022/12/04 02:43:48;;;;;;;13.10;11.77;;;;;;;;;;5047682;28;20029;-51
2022/12/04 02:49:56;;;;;;;;;;;;;;;;;;;;;
2022/12/04 02:55:34;;;;;;;17.07;12.13;;;;;;;;;;5087464;28;20419;-52
2022/12/04 02:58:32;;;;;;;16.47;12.40;;;;;;;;;;5129983;28;20019;-54
2022/12/04 03:01:16;;;;;;;16.57;13.23;;;;;;;;;;5128834;28;20039;-51
2022/12/04 03:04:03;;;;;;;16.13;10.70;;;;;;;;;;5130050;28;20109;-52
2022/12/04 03:06:56;;;;;;;16.23;12.67;;;;;;;;;;5129614;28;20058;-54
2022/12/04 03:12:57;;;;;;;15.30;11.00;;;;;;;;;;5007183;28;20469;-52
2022/12/04 03:19:08;;;;;;;17.83;11.37;;;;;;;;;;4987610;28;20031;-54
2022/12/04 03:21:58;;;;;;;16.03;13.63;;;;;;;;;;4988498;28;20022;-51
2022/12/04 03:24:39;;;;;;;12.90;11.13;;;;;;;;;;4987917;28;20113;-51
2022/12/04 03:27:32;;;;;;;14.30;11.80;;;;;;;;;;4957393;28;20034;-54
2022/12/04 03:30:26;;;;;;;15.97;12.10;;;;;;;;;;4985723;28;20448;-53
2022/12/04 03:36:25;;;;;;;12.87;10.50;;;;;;;;;;4980151;28;20042;-53
2022/12/04 03:42:29;;;;;;;13.43;9.33;;;;;;;;;;5004164;28;20034;-52
2022/12/04 03:48:21;;;;;;;18.33;12.30;;;;;;;;;;5015730;28;20089;-54
2022/12/04 03:54:00;;;;;;;14.80;11.67;;;;;;;;;;5025180;28;20052;-50
2022/12/04 03:56:41;;;;;;;18.33;13.50;;;;;;;;;;5129150;28;20023;-55
2022/12/04 03:59:54;;;;;;;15.18;11.43;;;;;;;;;;5129064;28;20016;-52
2022/12/04 04:02:28;;;;;;;17.63;11.90;;;;;;;;;;5128355;28;20038;-53
2022/12/04 04:04:56;;;;;;;12.70;10.83;;;;;;;;;;5101003;28;20042;-51
2022/12/04 04:07:42;;;;;;;16.40;11.97;;;;;;;;;;5105067;28;20055;-55
2022/12/04 04:10:44;;;;;;;15.77;11.93;;;;;;;;;;5106957;28;20036;-50
2022/12/04 04:24:59;;;;;;;12.80;9.33;;;;;;;;;;5108460;28;20147;-53
2022/12/04 04:27:44;;;;;;;11.17;8.53;;;;;;;;;;5107867;28;20034;-52
2022/12/04 04:30:42;;;;;;;16.27;10.07;;;;;;;;;;5107969;28;20016;-55
2022/12/04 04:33:31;;;;;;;16.37;11.50;;;;;;;;;;5093449;28;20070;-51
2022/12/04 04:36:19;;;;;;;12.77;10.93;;;;;;;;;;5093807;28;20020;-52
2022/12/04 04:38:51;;;;;;;13.50;9.00;;;;;;;;;;5075218;28;20051;-55
2022/12/04 04:41:41;;;;;;;19.90;10.07;;;;;;;;;;5093192;28;20507;-53
2022/12/04 04:44:30;;;;;;;10.65;7.50;;;;;;;;;;5073837;28;20039;-54
2022/12/04 04:47:34;;;;;;;;;;;;;;;;;;;;;
2022/12/04 04:50:37;;;;;;;14.47;10.03;;;;;;;;;;5094515;28;20040;-52
2022/12/04 04:56:28;;;;;;;12.37;10.07;;;;;;;;;;5035480;28;20025;-53
2022/12/04 04:59:21;;;;;;;13.53;9.70;;;;;;;;;;5087271;28;20111;-54
2022/12/04 05:01:56;;;;;;;13.30;10.63;;;;;;;;;;5079489;28;20047;-54
2022/12/04 05:04:26;;;;;;;24.57;10.73;;;;;;;;;;5098317;28;20105;-54
2022/12/04 05:13:14;;;;;;;11.77;7.60;;;;;;;;;;5109944;28;20047;-55
2022/12/04 05:22:34;;;;;;;11.93;9.43;;;;;;;;;;5117504;28;20091;-54
2022/12/04 05:25:43;;;;;;;10.73;7.97;;;;;;;;;;5118488;28;20404;-54
2022/12/04 05:28:51;;;;;;;;;;;;;;;;;;;;;
2022/12/04 05:31:34;;;;;;;16.55;9.10;;;;;;;;;;5123190;28;20115;-52
2022/12/04 05:34:03;;;;;;;;;;;;;;;;;;5112710;28;20366;-52
2022/12/04 05:40:04;;;;;;;8.33;7.00;;;;;;;;;;5130607;28;20031;-55
2022/12/04 05:42:58;;;;;;;14.70;9.23;;;;;;;;;;5078946;28;20118;-54
2022/12/04 05:49:14;;;;;;;;;;;;;;;;;;;;;
2022/12/04 05:57:51;;;;;;;13.63;9.13;;;;;;;;;;5068291;28;20071;-52
2022/12/04 06:03:40;;;;;;;10.93;7.90;;;;;;;;;;5047645;28;20049;-54
2022/12/04 06:09:32;;;;;;;12.03;9.43;;;;;;;;;;5042146;28;20052;-55
2022/12/04 06:12:03;;;;;;;17.00;11.30;;;;;;;;;;5110736;28;20055;-55
2022/12/04 06:18:17;;;;;;;11.82;9.32;;;;;;;;;;5018808;28;20061;-55
2022/12/04 06:21:05;;;;;;;15.97;10.30;;;;;;;;;;5110213;28;20083;-53
2022/12/04 06:23:38;;;;;;;12.23;9.07;;;;;;;;;;5067133;28;20036;-54
2022/12/04 06:26:08;;;;;;;11.20;7.17;;;;;;;;;;5067827;28;20037;-56
2022/12/04 06:29:09;;;;;;;13.63;10.90;;;;;;;;;;4991479;28;20043;-55
2022/12/04 06:31:37;;;;;;;;;;;;;;;;;;5008469;28;20052;-55
2022/12/04 06:37:25;;;;;;;9.97;6.77;;;;;;;;;;5008029;28;20081;-53
2022/12/04 06:40:18;;;;;;;11.20;7.80;;;;;;;;;;5008094;28;20066;-55
2022/12/04 06:43:05;;;;;;;12.40;9.43;;;;;;;;;;5008906;28;20117;-53
2022/12/04 06:46:10;;;;;;;10.20;8.07;;;;;;;;;;5008219;28;20030;-55
2022/12/04 06:49:24;;;;;;;;;;;;;;;;;;;;;
2022/12/04 06:52:03;;;;;;;10.13;8.37;;;;;;;;;;5042310;28;20049;-52
2022/12/04 06:54:46;;;;;;;21.60;9.10;;;;;;;;;;5038433;28;20081;-54
2022/12/04 06:57:39;;;;;;;10.63;7.93;;;;;;;;;;5040911;28;20037;-52
2022/12/04 07:00:50;;;;;;;13.67;9.63;;;;;;;;;;5089347;28;20039;-55
2022/12/04 07:04:16;;;;;;;;;;;;;;;;;;;;;
2022/12/04 07:07:03;;;;;;;11.07;8.43;;;;;;;;;;5031151;28;20069;-56
2022/12/04 07:09:35;;;;;;;10.47;8.63;;;;;;;;;;5058544;28;20062;-54
2022/12/04 07:12:20;;;;;;;9.00;7.73;;;;;;;;;;5108661;28;20039;-56
2022/12/04 07:15:09;;;;;;;14.70;9.83;;;;;;;;;;5067693;28;20037;-54
2022/12/04 07:18:10;;;;;;;10.63;9.43;;;;;;;;;;5050860;28;20032;-55
2022/12/04 07:21:20;;;;;;;8.75;7.43;;;;;;;;;;5067189;28;20033;-56
2022/12/04 07:24:42;;;;;;;8.33;6.97;;;;;;;;;;5067431;28;20092;-55
2022/12/04 07:30:17;;;;;;;12.20;7.30;;;;;;;;;;5067133;28;20059;-53
2022/12/04 07:33:03;;;;;;;11.73;8.03;;;;;;;;;;5067295;28;20040;-56
2022/12/04 07:35:39;;;;;;;15.23;9.47;;;;;;;;;;5067019;28;20101;-55
2022/12/04 07:38:39;;;;;;;16.10;9.03;;;;;;;;;;5067164;28;20433;-55
2022/12/04 07:41:19;;;;;;;10.90;8.52;;;;;;;;;;5066551;28;20041;-54
2022/12/04 07:44:27;;;;;;;13.63;7.40;;;;;;;;;;5067017;28;20029;-55
2022/12/04 07:47:05;;;;;;;13.00;9.80;;;;;;;;;;5104268;28;20032;-55
2022/12/04 07:50:01;;;;;;;11.70;8.57;;;;;;;;;;5109011;28;20061;-56
2022/12/04 07:53:13;;;;;;;17.03;8.87;;;;;;;;;;5108974;28;20454;-56
2022/12/04 07:55:46;;;;;;;12.60;8.73;;;;;;;;;;5100465;28;20032;-55
2022/12/04 07:58:30;;;;;;;11.03;7.57;;;;;;;;;;5091261;28;20107;-54
2022/12/04 08:04:50;;;;;;;13.07;8.17;;;;;;;;;;5019517;28;20097;-53
2022/12/04 08:07:29;;;;;;;12.87;10.17;;;;;;;;;;5018858;28;20129;-55
2022/12/04 08:10:10;;;;;;;12.20;7.40;;;;;;;;;;4987168;28;20377;-55
2022/12/04 08:12:49;;;;;;;13.33;9.80;;;;;;;;;;5004577;28;20042;-54
2022/12/04 08:15:21;;;;;;;14.70;8.30;;;;;;;;;;4991234;28;20098;-51
2022/12/04 08:18:07;;;;;;;15.53;8.00;;;;;;;;;;4990069;28;20146;-55
2022/12/04 08:20:45;;;;;;;15.02;7.32;;;;;;;;;;4977905;28;20122;-56
2022/12/04 08:23:23;;;;;;;9.48;8.43;;;;;;;;;;4992009;28;20045;-55
2022/12/04 08:26:11;;;;;;;13.23;8.60;;;;;;;;;;5011247;28;20065;-53
2022/12/04 08:28:49;;;;;;;11.77;8.07;;;;;;;;;;5011140;28;20050;-53
2022/12/04 08:34:30;;;;;;;12.77;8.53;;;;;;;;;;5096121;28;20031;-55
2022/12/04 08:37:15;;;;;;;18.93;8.57;;;;;;;;;;5104393;28;20107;-54
2022/12/04 08:43:29;;;;;;;11.40;7.90;;;;;;;;;;5103511;28;20043;-55
2022/12/04 08:46:13;;;;;;;9.60;7.23;;;;;;;;;;5113060;28;20031;-54
2022/12/04 08:52:06;;;;;;;19.40;8.40;;;;;;;;;;5112433;28;20040;-53
2022/12/04 08:54:55;;;;;;;10.50;7.07;;;;;;;;;;5105789;28;20063;-53
2022/12/04 08:57:24;;;;;;;10.23;8.40;;;;;;;;;;5091778;28;20123;-53
2022/12/04 09:00:15;;;;;;;;;;;;;;;;;;;;;
2022/12/04 09:02:54;;;;;;;10.90;8.67;;;;;;;;;;5098055;28;20052;-54
2022/12/04 09:05:31;;;;;;;13.93;10.03;;;;;;;;;;5110382;28;20105;-55
2022/12/04 09:08:35;;;;;;;12.20;8.13;;;;;;;;;;5088570;28;20043;-53
2022/12/04 09:14:24;;;;;;;13.67;7.57;;;;;;;;;;5132624;28;20048;-55
2022/12/04 09:17:10;;;;;;;14.32;10.05;;;;;;;;;;5114162;28;20023;-56
2022/12/04 09:22:44;;;;;;;14.35;9.63;;;;;;;;;;5132803;28;20069;-53
2022/12/04 09:25:21;;;;;;;;;;;;;;;;;;5132833;28;20034;-55
2022/12/04 09:28:16;;;;;;;12.77;8.70;;;;;;;;;;5131136;28;19911;-56
2022/12/04 09:31:04;;;;;;;15.30;8.23;;;;;;;;;;5130179;28;20039;-54
2022/12/04 09:42:29;;;;;;;;;;;;;;;;;;;;;
2022/12/04 09:45:17;;;;;;;11.68;9.55;;;;;;;;;;5129568;28;20066;-56
2022/12/04 09:47:57;;;;;;;12.90;8.18;;;;;;;;;;5129652;28;20034;-56
2022/12/04 09:50:31;;;;;;;13.80;9.70;;;;;;;;;;5129723;28;20035;-56
2022/12/04 09:56:29;;;;;;;14.27;10.48;;;;;;;;;;5119100;28;20032;-55
2022/12/04 10:02:21;;;;;;;14.18;9.82;;;;;;;;;;5121150;28;20036;-56
2022/12/04 10:05:34;;;;;;;11.68;8.32;;;;;;;;;;5111193;28;20058;-55
2022/12/04 10:08:09;;;;;;;11.20;8.73;;;;;;;;;;5118951;28;20496;-53
2022/12/04 10:11:02;;;;;;;16.23;11.07;;;;;;;;;;5128544;28;20465;-55
2022/12/04 10:20:15;;;;;;;13.57;11.40;;;;;;;;;;5066517;28;20030;-56
2022/12/04 10:25:48;;;;;;;13.00;9.10;;;;;;;;;;5101488;28;20124;-53
2022/12/04 10:31:36;;;;;;;18.63;11.03;;;;;;;;;;5124051;28;20049;-56
2022/12/04 10:37:20;;;;;;;16.08;10.98;;;;;;;;;;5123607;28;20077;-55
2022/12/04 10:42:54;;;;;;;18.37;11.53;;;;;;;;;;5130039;28;20042;-55
2022/12/04 10:45:22;;;;;;;12.90;9.17;;;;;;;;;;5129418;28;20110;-56
2022/12/04 10:51:06;;;;;;;16.67;12.57;;;;;;;;;;5074152;28;20048;-55
2022/12/04 10:54:01;;;;;;;16.40;12.47;;;;;;;;;;5130389;28;20041;-56
2022/12/04 10:56:44;;;;;;;14.70;10.30;;;;;;;;;;5114030;28;20035;-53
2022/12/04 11:03:12;;;;;;;14.07;10.63;;;;;;;;;;5125476;28;20054;-55
2022/12/04 11:05:57;;;;;;;15.73;11.70;;;;;;;;;;5129338;28;20027;-56
2022/12/04 11:09:00;;;;;;;12.67;10.20;;;;;;;;;;5077113;28;20066;-54
2022/12/04 11:20:55;;;;;;;17.17;11.30;;;;;;;;;;5037244;28;20025;-52
2022/12/04 11:23:51;;;;;;;;;;;;;;;;;;;;;
2022/12/04 11:26:38;;;;;;;13.67;10.17;;;;;;;;;;5019445;28;20053;-56
2022/12/04 11:29:40;;;;;;;13.48;10.85;;;;;;;;;;5010414;28;20048;-57
2022/12/04 11:35:52;;;;;;;;;;;;;;;;;;;;;
2022/12/04 11:42:16;;;;;;;15.17;10.00;;;;;;;;;;5094734;28;20068;-56
2022/12/04 11:45:29;;;;;;;15.25;11.35;;;;;;;;;;5114437;28;20545;-57
2022/12/04 11:48:36;;;;;;;;;;;;;;;;;;;;;
2022/12/04 11:51:18;;;;;;;11.77;9.20;;;;;;;;;;5115617;28;20034;-56
2022/12/04 11:57:27;;;;;;;22.02;10.35;;;;;;;;;;5028267;28;20030;-56
2022/12/04 12:06:31;;;;;;;14.20;11.07;;;;;;;;;;5113284;28;20034;-56
2022/12/04 12:09:34;;;;;;;15.20;9.47;;;;;;;;;;5115880;28;20019;-55
2022/12/04 12:12:34;;;;;;;14.57;9.03;;;;;;;;;;5116804;28;20493;-57
2022/12/04 12:18:17;;;;;;;;;;;;;;;;;;5115812;28;20384;-56
2022/12/04 12:21:20;;;;;;;;;;;;;;;;;;;;;
2022/12/04 12:24:09;;;;;;;17.40;9.67;;;;;;;;;;5110544;28;20084;-56
2022/12/04 12:27:13;;;;;;;;;;;;;;;;;;;;;
2022/12/04 12:29:58;;;;;;;15.47;10.07;;;;;;;;;;5062460;28;20039;-54
2022/12/04 12:36:06;;;;;;;;;;;;;;;;;;;;;
2022/12/04 12:38:49;;;;;;;15.27;10.02;;;;;;;;;;5115183;28;20031;-57
2022/12/04 12:41:29;;;;;;;12.50;8.70;;;;;;;;;;5114686;28;20510;-54
2022/12/04 12:50:43;;;;;;;13.07;8.52;;;;;;;;;;5105158;28;20065;-56
2022/12/04 12:53:47;;;;;;;9.68;7.32;;;;;;;;;;5123661;28;20039;-54
2022/12/04 12:56:17;;;;;;;14.17;10.00;;;;;;;;;;5129367;28;20024;-54
2022/12/04 13:02:37;;;;;;;13.70;9.50;;;;;;;;;;5046277;28;20045;-54
2022/12/04 13:05:26;;;;;;;30.42;10.77;;;;;;;;;;5046707;28;20034;-55
2022/12/04 13:08:14;;;;;;;11.30;8.43;;;;;;;;;;5044946;28;20033;-54
2022/12/04 13:14:08;;;;;;;9.45;7.90;;;;;;;;;;5104568;28;20082;-54
2022/12/04 13:16:39;;;;;;;15.95;11.77;;;;;;;;;;5093368;28;20050;-55
2022/12/04 13:19:43;;;;;;;12.98;9.77;;;;;;;;;;5110095;28;20044;-51
2022/12/04 13:22:35;;;;;;;12.68;10.57;;;;;;;;;;5109982;28;20099;-55
2022/12/04 13:25:30;;;;;;;14.07;9.00;;;;;;;;;;5109602;28;20039;-56
2022/12/04 13:28:05;;;;;;;13.10;10.63;;;;;;;;;;5109259;28;20016;-55
2022/12/04 13:30:49;;;;;;;11.15;7.13;;;;;;;;;;5128354;28;20040;-55
2022/12/04 13:33:50;;;;;;;11.50;8.32;;;;;;;;;;5119231;28;20066;-56
2022/12/04 13:42:43;;;;;;;9.53;8.43;;;;;;;;;;5122577;28;20040;-52
2022/12/04 13:45:28;;;;;;;11.07;9.07;;;;;;;;;;5130071;28;20024;-55
2022/12/04 13:48:26;;;;;;;13.67;9.13;;;;;;;;;;5131030;28;20092;-55
2022/12/04 13:51:25;;;;;;;12.48;8.60;;;;;;;;;;5112933;28;20054;-56
2022/12/04 13:54:19;;;;;;;9.88;8.30;;;;;;;;;;5130053;28;20039;-55
2022/12/04 13:57:04;;;;;;;8.88;7.93;;;;;;;;;;5128107;28;20041;-56
2022/12/04 13:59:48;;;;;;;17.67;11.73;;;;;;;;;;5112139;28;20032;-56
2022/12/04 14:02:38;;;;;;;17.35;9.57;;;;;;;;;;5131217;28;20024;-55
2022/12/04 14:05:16;;;;;;;14.82;10.70;;;;;;;;;;5130952;28;20028;-55
2022/12/04 14:08:22;;;;;;;;;;;;;;;;;;;;;
2022/12/04 14:11:12;;;;;;;13.60;10.52;;;;;;;;;;5082530;28;20067;-55
2022/12/04 14:14:01;;;;;;;;;;;;;;;;;;;;;
2022/12/04 14:19:40;;;;;;;22.58;10.23;;;;;;;;;;5126777;28;20085;-53
2022/12/04 14:28:30;;;;;;;11.77;9.07;;;;;;;;;;5130500;28;20031;-54
2022/12/04 14:31:39;;;;;;;18.83;11.57;;;;;;;;;;5094695;28;20032;-55
2022/12/04 14:34:15;;;;;;;16.73;12.00;;;;;;;;;;5127970;28;20039;-54
2022/12/04 14:36:54;;;;;;;20.45;11.15;;;;;;;;;;5130106;28;20019;-53
2022/12/04 14:39:46;;;;;;;;;;;;;;;;;;;;;
2022/12/04 14:42:30;;;;;;;12.52;9.30;;;;;;;;;;5112378;28;20032;-55
2022/12/04 14:45:14;;;;;;;11.47;8.13;;;;;;;;;;5116433;28;20099;-54
2022/12/04 14:48:10;;;;;;;14.95;9.93;;;;;;;;;;5117048;28;20038;-54
2022/12/04 14:51:08;;;;;;;14.00;11.32;;;;;;;;;;5097283;28;20043;-51
2022/12/04 14:53:58;;;;;;;13.70;11.02;;;;;;;;;;5116065;28;20028;-52
2022/12/04 14:59:47;;;;;;;16.52;13.50;;;;;;;;;;5116352;28;20026;-53
2022/12/04 15:02:35;;;;;;;11.82;10.60;;;;;;;;;;5116501;28;20036;-55
2022/12/04 15:05:20;;;;;;;12.20;8.95;;;;;;;;;;5116574;28;20066;-51
2022/12/04 15:08:22;;;;;;;13.95;9.85;;;;;;;;;;5116572;28;20451;-52
2022/12/04 15:13:37;;;;;;;15.93;10.90;;;;;;;;;;5115931;28;20108;-52
2022/12/04 15:16:34;;;;;;;16.20;9.50;;;;;;;;;;5115797;28;20019;-52
2022/12/04 15:19:07;;;;;;;13.10;9.40;;;;;;;;;;5116393;28;20242;-55
2022/12/04 15:22:01;;;;;;;9.98;8.02;;;;;;;;;;5115972;28;20065;-54
2022/12/04 15:24:56;;;;;;;10.75;9.32;;;;;;;;;;5116487;28;20051;-53
2022/12/04 15:27:52;;;;;;;12.63;9.05;;;;;;;;;;5076996;28;20050;-55
2022/12/04 15:30:47;;;;;;;11.77;8.75;;;;;;;;;;5115731;28;20019;-55
2022/12/04 15:37:06;;;;;;;15.00;8.67;;;;;;;;;;5033475;28;20116;-54
2022/12/04 15:43:25;;;;;;;;;;;;;;;;;;;;;
2022/12/04 15:46:12;;;;;;;;;;;;;;;;;;;;;
2022/12/04 15:48:59;;;;;;;10.65;9.25;;;;;;;;;;5031892;28;20379;-56
2022/12/04 15:51:44;;;;;;;12.93;9.93;;;;;;;;;;5006112;28;20087;-55
2022/12/04 15:54:25;;;;;;;10.17;9.10;;;;;;;;;;5095967;28;20042;-55
2022/12/04 16:07:18;;;;;;;10.07;7.33;;;;;;;;;;5101012;28;20114;-54
2022/12/04 16:10:00;;;;;;;15.80;8.77;;;;;;;;;;5114142;28;20043;-56
2022/12/04 16:13:05;;;;;;;20.02;10.15;;;;;;;;;;5113183;28;20120;-52
2022/12/04 16:16:07;;;;;;;12.32;8.82;;;;;;;;;;5095946;28;20040;-52
2022/12/04 16:18:36;;;;;;;16.23;12.48;;;;;;;;;;5115270;28;20028;-53
2022/12/04 16:27:32;;;;;;;14.52;10.57;;;;;;;;;;5114032;28;20485;-53
2022/12/04 16:36:27;;;;;;;16.55;11.73;;;;;;;;;;5050850;28;20029;-55
2022/12/04 16:39:18;;;;;;;12.27;9.43;;;;;;;;;;5051988;28;20057;-54
2022/12/04 16:41:53;;;;;;;17.27;11.27;;;;;;;;;;5034873;28;20075;-55
2022/12/04 16:44:39;;;;;;;20.13;11.50;;;;;;;;;;5084776;28;20035;-55
2022/12/04 16:47:14;;;;;;;18.02;10.20;;;;;;;;;;5118955;28;20038;-55
2022/12/04 16:56:15;;;;;;;18.08;8.63;;;;;;;;;;5109928;28;20050;-56
2022/12/04 16:58:52;;;;;;;10.38;9.27;;;;;;;;;;5119026;28;20103;-54
2022/12/04 17:04:44;;;;;;;13.75;10.20;;;;;;;;;;5114310;28;20054;-53
2022/12/04 17:07:14;;;;;;;18.67;11.07;;;;;;;;;;5094410;28;20039;-54
2022/12/04 17:10:02;;;;;;;14.00;10.38;;;;;;;;;;5118307;28;20120;-55
2022/12/04 17:22:07;;;;;;;20.95;14.82;;;;;;;;;;5119090;28;20478;-56
2022/12/04 17:28:21;;;;;;;20.40;14.93;;;;;;;;;;5114095;28;20073;-52
2022/12/04 17:31:03;;;;;;;13.98;11.40;;;;;;;;;;5097193;28;20036;-54
2022/12/04 17:33:48;;;;;;;;;;;;;;;;;;;;;
2022/12/04 17:36:24;;;;;;;16.20;11.65;;;;;;;;;;5112592;28;20126;-52
2022/12/04 17:45:06;;;;;;;18.43;10.53;;;;;;;;;;5087435;28;20090;-55
2022/12/04 17:50:43;;;;;;;16.38;11.13;;;;;;;;;;5084837;28;20170;-55
2022/12/04 17:53:28;;;;;;;16.05;9.85;;;;;;;;;;5096956;28;20077;-53
2022/12/04 17:59:15;;;;;;;;;;;;;;;;;;5026185;28;20040;-54
2022/12/04 18:01:56;;;;;;;16.75;10.18;;;;;;;;;;5033916;28;20339;-57
2022/12/04 18:04:31;;;;;;;12.50;10.60;;;;;;;;;;5114923;28;20496;-56
2022/12/04 18:07:27;;;;;;;11.90;8.25;;;;;;;;;;5109847;28;20102;-53
2022/12/04 18:10:08;;;;;;;13.48;10.95;;;;;;;;;;5105757;28;20088;-56
2022/12/04 18:19:05;;;;;;;16.10;12.38;;;;;;;;;;5054047;28;20048;-56
2022/12/04 18:21:41;;;;;;;16.65;11.60;;;;;;;;;;5053628;28;20025;-54
2022/12/04 18:24:28;;;;;;;19.80;10.45;;;;;;;;;;5053890;28;20048;-57
2022/12/04 18:27:24;;;;;;;16.02;10.00;;;;;;;;;;5052707;28;20602;-56
2022/12/04 18:33:07;;;;;;;18.48;10.60;;;;;;;;;;5094084;28;20469;-55
2022/12/04 18:38:46;;;;;;;17.20;10.98;;;;;;;;;;5116395;28;20377;-57
2022/12/04 18:41:48;;;;;;;21.10;13.95;;;;;;;;;;5116126;28;20106;-55
2022/12/04 18:44:35;;;;;;;12.23;10.48;;;;;;;;;;5062899;28;20088;-53
2022/12/04 18:47:08;;;;;;;20.27;12.02;;;;;;;;;;5097829;28;20032;-56
2022/12/04 18:49:48;;;;;;;;;;;;;;;;;;;;;
2022/12/04 18:52:23;;;;;;;15.98;12.15;;;;;;;;;;5116477;28;20027;-56
2022/12/04 18:58:31;;;;;;;15.52;11.60;;;;;;;;;;5092044;28;20130;-56
2022/12/04 19:01:33;;;;;;;;;;;;;;;;;;;;;
2022/12/04 19:04:40;;;;;;;23.08;12.65;;;;;;;;;;5095325;28;20041;-55
2022/12/04 19:13:26;;;;;;;14.77;10.93;;;;;;;;;;5080939;28;20121;-56
2022/12/04 19:16:12;;;;;;;16.83;11.82;;;;;;;;;;5097572;28;20055;-55
2022/12/04 19:18:51;;;;;;;19.83;13.57;;;;;;;;;;5116367;28;20068;-56
2022/12/04 19:21:35;;;;;;;16.90;12.93;;;;;;;;;;5098543;28;20362;-54
2022/12/04 19:24:43;;;;;;;21.93;12.27;;;;;;;;;;5116489;28;20024;-55
2022/12/04 19:27:15;;;;;;;18.05;12.25;;;;;;;;;;5102254;28;20028;-54
2022/12/04 19:33:00;;;;;;;19.33;13.07;;;;;;;;;;5112582;28;20085;-56
2022/12/04 19:38:26;;;;;;;19.55;13.13;;;;;;;;;;5116096;28;20385;-56
2022/12/04 19:41:14;;;;;;;20.58;13.60;;;;;;;;;;5089489;28;20077;-56
2022/12/04 19:47:02;;;;;;;21.90;12.07;;;;;;;;;;5107502;28;20365;-56
2022/12/04 19:49:57;;;;;;;;;;;;;;;;;;;;;
2022/12/04 19:58:59;;;;;;;16.95;11.68;;;;;;;;;;5043804;28;20032;-55
2022/12/04 20:01:35;;;;;;;18.77;14.43;;;;;;;;;;5073979;28;20032;-52
2022/12/04 20:04:31;;;;;;;22.98;14.57;;;;;;;;;;5053883;28;20160;-54
2022/12/04 20:07:09;;;;;;;23.30;14.82;;;;;;;;;;5072315;28;20028;-57
2022/12/04 20:09:56;;;;;;;16.60;14.10;;;;;;;;;;5071827;28;20039;-54
2022/12/04 20:30:22;;;;;;;17.70;12.80;;;;;;;;;;5071653;28;20040;-53
2022/12/04 20:33:06;;;;;;;23.40;13.15;;;;;;;;;;5071606;28;20039;-56
2022/12/04 20:39:01;;;;;;;20.67;13.80;;;;;;;;;;5068807;28;20034;-56
2022/12/04 20:44:35;;;;;;;21.48;14.90;;;;;;;;;;5071278;28;20048;-54
2022/12/04 20:50:31;;;;;;;20.10;12.00;;;;;;;;;;5090302;28;20080;-53
2022/12/04 20:53:23;;;;;;;20.88;13.70;;;;;;;;;;5114218;28;20325;-55
2022/12/04 20:56:06;;;;;;;21.05;12.43;;;;;;;;;;5113813;28;20028;-54
2022/12/04 21:02:26;;;;;;;24.77;13.77;;;;;;;;;;5114880;28;20092;-54
2022/12/04 21:05:25;;;;;;;16.55;13.57;;;;;;;;;;5031659;28;20096;-55
2022/12/04 21:08:51;;;;;;;25.33;13.17;;;;;;;;;;5109158;28;20039;-55
2022/12/04 21:11:42;;;;;;;19.42;11.38;;;;;;;;;;5108581;28;20035;-56
2022/12/04 21:17:48;;;;;;;19.55;13.68;;;;;;;;;;5114471;28;20078;-57
2022/12/04 21:20:32;;;;;;;17.25;12.95;;;;;;;;;;5070870;28;20047;-55
2022/12/04 21:23:36;;;;;;;18.83;11.00;;;;;;;;;;5113939;28;20023;-56
2022/12/04 21:29:42;;;;;;;17.63;11.50;;;;;;;;;;5114180;28;20034;-55
2022/12/04 21:32:31;;;;;;;19.75;11.77;;;;;;;;;;5074332;28;20088;-54
2022/12/04 21:38:48;;;;;;;20.77;13.03;;;;;;;;;;5068077;28;20043;-56
2022/12/04 21:44:39;;;;;;;15.27;11.98;;;;;;;;;;5075186;28;20141;-53
2022/12/04 21:52:57;;;;;;;15.25;10.05;;;;;;;;;;5021943;28;20033;-56
2022/12/04 21:56:00;;;;;;;;;;;;;;;;;;;;;
2022/12/04 21:58:40;;;;;;;15.07;12.32;;;;;;;;;;5063755;28;20116;-55
2022/12/04 22:01:45;;;;;;;13.50;11.02;;;;;;;;;;5067697;28;20028;-55
2022/12/04 22:04:32;;;;;;;;;;;;;;;;;;;;;
2022/12/04 22:07:20;;;;;;;;;;;;;;;;;;;;;
2022/12/04 22:12:48;;;;;;;12.38;9.50;;;;;;;;;;5086061;28;20036;-57
2022/12/04 22:15:50;;;;;;;18.10;10.80;;;;;;;;;;5087944;28;20068;-57
2022/12/04 22:18:40;;;;;;;;;;;;;;;;;;;;;
2022/12/04 22:21:27;;;;;;;15.93;10.88;;;;;;;;;;5028680;28;20070;-53
2022/12/04 22:24:15;;;;;;;14.35;9.77;;;;;;;;;;5011191;28;20030;-55
2022/12/04 22:26:56;;;;;;;14.48;9.77;;;;;;;;;;5017484;28;20033;-54
2022/12/04 22:32:41;;;;;;;14.70;10.05;;;;;;;;;;5046376;28;20108;-55
2022/12/04 22:35:34;;;;;;;12.57;8.63;;;;;;;;;;5048124;28;20033;-53
2022/12/04 22:38:21;;;;;;;18.50;9.77;;;;;;;;;;5048442;28;20458;-56
2022/12/04 22:54:04;;;;;;;13.50;8.20;;;;;;;;;;4987783;28;20066;-55
2022/12/04 22:56:52;;;;;;;12.83;8.77;;;;;;;;;;5063028;28;20154;-54
2022/12/04 22:59:27;;;;;;;15.45;9.60;;;;;;;;;;5070495;28;20066;-55
2022/12/04 23:05:18;;;;;;;16.73;11.52;;;;;;;;;;5086622;28;20047;-52
2022/12/04 23:08:10;;;;;;;15.23;11.97;;;;;;;;;;5129209;28;20050;-56
2022/12/04 23:10:46;;;;;;;14.10;10.97;;;;;;;;;;5124154;28;20095;-57
2022/12/04 23:18:57;;;;;;;12.02;10.70;;;;;;;;;;5076592;28;20044;-51
2022/12/04 23:21:39;;;;;;;11.85;9.18;;;;;;;;;;5107942;28;20090;-52
2022/12/04 23:24:38;;;;;;;12.15;8.48;;;;;;;;;;5109145;28;20039;-53
2022/12/04 23:27:18;;;;;;;;;;;;;;;;;;;;;
2022/12/04 23:32:35;;;;;;;16.23;11.47;;;;;;;;;;5108664;28;20067;-55
2022/12/04 23:38:10;;;;;;;11.63;10.00;;;;;;;;;;5108743;28;20039;-56
2022/12/04 23:40:36;;;;;;;14.48;9.23;;;;;;;;;;5066108;28;20039;-57
2022/12/04 23:43:14;;;;;;;19.93;10.40;;;;;;;;;;5066155;28;20097;-56
2022/12/04 23:45:45;;;;;;;20.10;9.27;;;;;;;;;;5034203;28;20039;-56
2022/12/04 23:51:38;;;;;;;;;;;;;;;;;;;;;
2022/12/04 23:54:36;;;;;;;;;;;;;;;;;;;;;
2022/12/04 23:57:09;;;;;;;12.70;8.63;;;;;;;;;;5062026;28;20432;-55
2022/12/04 23:59:56;;;;;;;16.70;11.83;;;;;;;;;;5016159;28;20367;-55
